Time;durP1;ratioP1;P1;durP2;ratioP2;P2;SDS_P1;SDS_P2;PMS_P1;PMS_P2;Temp;Humidity;BMP_temperature;BMP_pressure;BME280_temperature;BME280_humidity;BME280_pressure;Samples;Min_cycle;Max_cycle;Signal;HPM_P1;HPM_P2
2023/03/18 00:01:57;;;;;;;4.38;2.40;;;12.30;99.90;;;;;;5011378;28;20091;-64
2023/03/18 00:04:23;;;;;;;0.38;0.38;;;12.40;99.90;;;;;;5012705;28;20057;-64
2023/03/18 00:06:49;;;;;;;4.97;0.82;;;12.50;99.90;;;;;;4995024;28;20050;-64
2023/03/18 00:09:15;;;;;;;0.47;0.40;;;12.30;99.90;;;;;;4992812;28;20054;-65
2023/03/18 00:11:40;;;;;;;0.22;0.22;;;12.30;99.90;;;;;;4993328;28;20042;-64
2023/03/18 00:14:07;;;;;;;0.77;0.77;;;12.30;99.90;;;;;;4992104;28;20049;-65
2023/03/18 00:16:34;;;;;;;0.85;0.85;;;12.20;99.90;;;;;;5000356;28;20039;-65
2023/03/18 00:19:01;;;;;;;0.35;0.35;;;12.10;99.90;;;;;;4992784;28;20108;-65
2023/03/18 00:21:28;;;;;;;1.55;0.60;;;12.00;99.90;;;;;;5009361;28;20045;-65
2023/03/18 00:23:55;;;;;;;0.55;0.55;;;11.90;99.90;;;;;;4999098;28;20133;-64
2023/03/18 00:26:22;;;;;;;0.55;0.55;;;12.00;99.90;;;;;;5006613;28;20130;-65
2023/03/18 00:28:48;;;;;;;11.88;1.35;;;12.20;99.90;;;;;;4997227;28;20078;-62
2023/03/18 00:31:14;;;;;;;0.75;0.75;;;12.10;99.90;;;;;;5007320;28;20124;-62
2023/03/18 00:33:43;;;;;;;0.70;0.70;;;12.00;99.90;;;;;;5010118;28;20056;-62
2023/03/18 00:36:12;;;;;;;0.52;0.52;;;12.10;99.90;;;;;;5002548;28;20402;-62
2023/03/18 00:38:38;;;;;;;0.90;0.90;;;12.00;99.90;;;;;;4995119;28;20077;-62
2023/03/18 00:41:10;;;;;;;0.65;0.65;;;12.00;99.90;;;;;;5005224;28;20089;-62
2023/03/18 00:43:44;;;;;;;1.13;1.02;;;11.90;99.90;;;;;;4992259;28;20074;-62
2023/03/18 00:46:15;;;;;;;1.38;1.10;;;11.90;99.90;;;;;;5003450;28;20153;-62
2023/03/18 00:48:41;;;;;;;22.83;1.67;;;11.90;99.90;;;;;;4991908;28;20491;-62
2023/03/18 00:51:09;;;;;;;0.73;0.65;;;11.80;99.90;;;;;;4996273;28;20078;-62
2023/03/18 00:53:35;;;;;;;2.15;1.42;;;11.80;99.90;;;;;;5004410;28;20791;-63
2023/03/18 00:56:01;;;;;;;2.92;1.58;;;11.80;99.90;;;;;;5002776;28;20568;-62
2023/03/18 00:58:26;;;;;;;2.72;1.00;;;11.70;99.90;;;;;;5008874;28;20103;-62
2023/03/18 01:00:53;;;;;;;6.90;2.40;;;11.60;99.90;;;;;;5011111;28;20045;-62
2023/03/18 01:03:19;;;;;;;1.50;1.17;;;11.50;99.90;;;;;;5007401;28;20124;-62
2023/03/18 01:05:44;;;;;;;1.67;0.38;;;11.50;99.90;;;;;;5000510;28;20470;-61
2023/03/18 01:08:11;;;;;;;1.67;1.17;;;11.50;99.90;;;;;;5008885;28;20038;-63
2023/03/18 01:10:37;;;;;;;1.13;0.47;;;11.40;99.90;;;;;;5001607;28;20086;-62
2023/03/18 01:13:03;;;;;;;0.55;0.50;;;11.40;99.90;;;;;;5003654;28;20052;-62
2023/03/18 01:15:29;;;;;;;3.05;2.75;;;11.30;99.90;;;;;;5010164;28;20552;-62
2023/03/18 01:17:55;;;;;;;2.35;0.93;;;11.20;99.90;;;;;;4992619;28;20121;-62
2023/03/18 01:20:22;;;;;;;4.60;1.83;;;11.30;99.90;;;;;;5007582;28;20042;-62
2023/03/18 01:22:49;;;;;;;2.10;1.17;;;11.10;99.90;;;;;;5006100;28;20054;-62
2023/03/18 01:25:15;;;;;;;0.82;0.82;;;11.10;99.90;;;;;;5003960;28;20504;-62
2023/03/18 01:27:42;;;;;;;1.20;1.10;;;11.10;99.90;;;;;;5010316;28;20046;-63
2023/03/18 01:30:09;;;;;;;2.15;1.23;;;11.00;99.90;;;;;;5008694;28;20034;-62
2023/03/18 01:32:35;;;;;;;0.55;0.55;;;11.10;99.90;;;;;;4999479;28;20133;-62
2023/03/18 01:35:01;;;;;;;5.70;1.38;;;11.00;99.90;;;;;;5000881;28;20489;-62
2023/03/18 01:37:27;;;;;;;2.97;1.77;;;10.90;99.90;;;;;;5008458;28;20065;-62
2023/03/18 01:39:53;;;;;;;0.82;0.82;;;10.90;99.90;;;;;;5008921;28;20077;-62
2023/03/18 01:42:21;;;;;;;1.92;1.33;;;10.70;99.90;;;;;;4996095;28;20663;-62
2023/03/18 01:44:47;;;;;;;1.30;0.95;;;10.70;99.90;;;;;;4999069;28;20057;-62
2023/03/18 01:47:15;;;;;;;0.60;0.60;;;10.70;99.90;;;;;;4992334;28;20034;-62
2023/03/18 01:49:47;;;;;;;0.80;0.80;;;10.70;99.90;;;;;;5005789;28;20045;-62
2023/03/18 01:52:22;;;;;;;2.65;1.80;;;10.60;99.90;;;;;;5008715;28;20164;-62
2023/03/18 01:55:12;;;;;;;0.30;0.30;;;10.60;99.90;;;;;;4991795;28;20472;-62
2023/03/18 01:57:40;;;;;;;0.50;0.50;;;10.50;99.90;;;;;;5005774;28;20552;-62
2023/03/18 02:00:09;;;;;;;2.10;1.90;;;10.40;99.90;;;;;;4999899;28;20058;-62
2023/03/18 02:02:38;;;;;;;2.40;1.35;;;10.40;99.90;;;;;;5004797;28;20125;-63
2023/03/18 02:05:06;;;;;;;0.32;0.32;;;10.20;99.90;;;;;;5003431;28;20134;-62
2023/03/18 02:07:34;;;;;;;0.50;0.47;;;10.20;99.90;;;;;;4991294;28;20046;-62
2023/03/18 02:10:04;;;;;;;0.73;0.73;;;10.20;99.90;;;;;;4998735;28;20412;-62
2023/03/18 02:12:33;;;;;;;1.05;1.05;;;10.20;99.90;;;;;;4993647;28;20512;-62
2023/03/18 02:15:01;;;;;;;0.65;0.65;;;10.10;99.90;;;;;;4997704;28;20396;-62
2023/03/18 02:17:31;;;;;;;0.38;0.38;;;10.00;99.90;;;;;;5011680;28;20050;-62
2023/03/18 02:20:28;;;;;;;1.58;1.48;;;9.80;99.90;;;;;;5010311;28;20089;-62
2023/03/18 02:23:01;;;;;;;0.30;0.30;;;9.70;99.90;;;;;;5003754;28;20046;-62
2023/03/18 02:25:42;;;;;;;1.75;1.40;;;9.60;99.90;;;;;;5011788;28;20110;-62
2023/03/18 02:28:15;;;;;;;0.57;0.55;;;9.70;99.90;;;;;;4998432;28;20049;-62
2023/03/18 02:30:46;;;;;;;1.27;1.27;;;9.60;99.90;;;;;;5000897;28;20053;-62
2023/03/18 02:33:14;;;;;;;0.82;0.75;;;9.50;99.90;;;;;;5004548;28;20048;-62
2023/03/18 02:35:43;;;;;;;0.45;0.45;;;9.40;99.90;;;;;;5012653;28;20529;-62
2023/03/18 02:38:09;;;;;;;8.95;1.27;;;9.40;99.90;;;;;;5009078;28;20420;-62
2023/03/18 02:40:37;;;;;;;0.98;0.98;;;9.40;99.90;;;;;;5003116;28;20049;-62
2023/03/18 02:43:28;;;;;;;0.93;0.93;;;9.50;99.90;;;;;;4998021;28;20046;-62
2023/03/18 02:45:54;;;;;;;1.00;0.77;;;9.60;99.90;;;;;;5012262;28;20065;-62
2023/03/18 02:48:26;;;;;;;0.57;0.57;;;9.60;99.90;;;;;;5011766;28;20171;-63
2023/03/18 02:50:52;;;;;;;1.38;1.27;;;9.50;99.90;;;;;;5006298;28;20062;-62
2023/03/18 02:53:18;;;;;;;4.13;1.45;;;9.40;99.90;;;;;;5001388;28;20072;-62
2023/03/18 02:55:44;;;;;;;2.13;1.95;;;9.40;99.90;;;;;;4997584;28;20078;-62
2023/03/18 02:58:10;;;;;;;0.15;0.15;;;9.40;99.90;;;;;;5007767;28;20089;-62
2023/03/18 03:00:36;;;;;;;0.57;0.57;;;9.30;99.90;;;;;;5011316;28;20045;-62
2023/03/18 03:03:02;;;;;;;1.58;1.45;;;9.30;99.90;;;;;;5012766;28;20373;-62
2023/03/18 03:05:28;;;;;;;0.52;0.52;;;9.40;99.90;;;;;;5005740;28;20038;-63
2023/03/18 03:07:54;;;;;;;6.93;0.90;;;9.50;99.90;;;;;;4997078;28;20597;-62
2023/03/18 03:10:20;;;;;;;0.50;0.50;;;9.40;99.90;;;;;;5004206;28;20108;-62
2023/03/18 03:12:46;;;;;;;0.85;0.77;;;9.40;99.90;;;;;;5010092;28;20045;-62
2023/03/18 03:15:12;;;;;;;0.30;0.30;;;9.40;99.90;;;;;;5007796;28;20093;-62
2023/03/18 03:17:38;;;;;;;4.57;1.98;;;9.30;99.90;;;;;;5003489;28;20089;-62
2023/03/18 03:20:05;;;;;;;3.10;1.40;;;9.20;99.90;;;;;;5009167;28;20112;-62
2023/03/18 03:22:31;;;;;;;1.38;1.27;;;9.20;99.90;;;;;;5007398;28;20413;-62
2023/03/18 03:24:57;;;;;;;0.30;0.30;;;9.10;99.90;;;;;;5006509;28;20042;-62
2023/03/18 03:27:23;;;;;;;1.00;0.77;;;9.10;99.90;;;;;;5001599;28;20061;-62
2023/03/18 03:29:48;;;;;;;1.35;0.77;;;9.00;99.90;;;;;;4998566;28;20042;-62
2023/03/18 03:32:14;;;;;;;3.85;2.78;;;8.90;99.90;;;;;;5006264;28;20053;-62
2023/03/18 03:34:42;;;;;;;6.13;1.70;;;8.90;99.90;;;;;;4994569;28;20086;-62
2023/03/18 03:37:08;;;;;;;0.55;0.55;;;8.90;99.90;;;;;;5004078;28;20056;-62
2023/03/18 03:39:33;;;;;;;1.20;0.52;;;8.90;99.90;;;;;;5003019;28;20045;-62
2023/03/18 03:41:59;;;;;;;0.10;0.10;;;8.90;99.90;;;;;;5011076;28;20096;-62
2023/03/18 03:44:24;;;;;;;8.63;1.85;;;8.80;99.90;;;;;;5012018;28;20048;-62
2023/03/18 03:46:50;;;;;;;0.40;0.40;;;8.80;99.90;;;;;;4995853;28;20046;-62
2023/03/18 03:49:16;;;;;;;0.43;0.43;;;8.70;99.90;;;;;;5008806;28;20040;-62
2023/03/18 03:51:42;;;;;;;0.55;0.55;;;8.60;99.90;;;;;;5009430;28;20045;-62
2023/03/18 03:54:07;;;;;;;9.18;1.20;;;8.60;99.90;;;;;;4997232;28;20976;-62
2023/03/18 03:56:33;;;;;;;0.57;0.57;;;8.60;99.90;;;;;;5011520;28;20457;-62
2023/03/18 03:58:59;;;;;;;0.30;0.30;;;8.60;99.90;;;;;;5008913;28;20052;-62
2023/03/18 04:01:26;;;;;;;0.68;0.68;;;8.50;99.90;;;;;;5006929;28;20478;-62
2023/03/18 04:03:51;;;;;;;0.10;0.10;;;8.50;99.90;;;;;;5000873;28;20045;-62
2023/03/18 04:06:17;;;;;;;0.90;0.90;;;8.40;99.90;;;;;;5015493;28;20457;-63
2023/03/18 04:08:42;;;;;;;0.93;0.93;;;8.50;99.90;;;;;;5000434;28;20121;-62
2023/03/18 04:11:08;;;;;;;0.50;0.50;;;8.50;99.90;;;;;;5006721;28;20484;-63
2023/03/18 04:13:34;;;;;;;0.10;0.10;;;8.50;99.90;;;;;;5011004;28;20405;-62
2023/03/18 04:16:00;;;;;;;2.90;2.67;;;8.50;99.90;;;;;;5011189;28;20054;-62
2023/03/18 04:18:26;;;;;;;0.30;0.30;;;8.50;99.90;;;;;;5000621;28;20038;-62
2023/03/18 04:20:51;;;;;;;0.10;0.10;;;8.60;99.90;;;;;;5008555;28;20046;-62
2023/03/18 04:23:17;;;;;;;0.88;0.88;;;8.50;99.90;;;;;;5010106;28;20054;-63
2023/03/18 04:25:43;;;;;;;1.50;1.42;;;8.50;99.90;;;;;;5008654;28;20485;-62
2023/03/18 04:28:09;;;;;;;0.63;0.63;;;8.50;99.90;;;;;;5003508;28;20445;-62
2023/03/18 04:30:34;;;;;;;1.50;1.40;;;8.60;99.90;;;;;;5005031;28;20053;-62
2023/03/18 04:33:00;;;;;;;0.50;0.50;;;8.50;99.90;;;;;;5011483;28;20107;-62
2023/03/18 04:35:27;;;;;;;1.85;1.30;;;8.60;99.90;;;;;;4997252;28;20050;-62
2023/03/18 04:37:53;;;;;;;2.17;0.60;;;8.60;99.90;;;;;;5006644;28;20060;-62
2023/03/18 04:40:19;;;;;;;1.15;1.13;;;8.60;99.90;;;;;;5004845;28;20493;-62
2023/03/18 04:42:46;;;;;;;1.42;1.33;;;8.60;99.90;;;;;;5004554;28;20045;-62
2023/03/18 04:45:14;;;;;;;0.63;0.63;;;8.60;99.90;;;;;;5010866;28;20053;-62
2023/03/18 04:47:40;;;;;;;0.95;0.90;;;8.60;99.90;;;;;;5009715;28;20050;-62
2023/03/18 04:50:09;;;;;;;1.42;1.33;;;8.70;99.90;;;;;;4994809;28;20057;-62
2023/03/18 04:52:35;;;;;;;0.50;0.50;;;8.70;99.90;;;;;;4999540;28;20374;-62
2023/03/18 04:55:02;;;;;;;1.23;1.13;;;8.80;99.90;;;;;;5000652;28;20042;-62
2023/03/18 04:57:28;;;;;;;2.60;2.05;;;8.70;99.90;;;;;;5008846;28;20056;-62
2023/03/18 04:59:54;;;;;;;1.73;1.63;;;8.70;99.90;;;;;;4998072;28;20050;-62
2023/03/18 05:02:19;;;;;;;4.22;2.83;;;8.80;99.90;;;;;;5005006;28;20056;-62
2023/03/18 05:04:45;;;;;;;1.30;1.20;;;8.80;99.90;;;;;;4991892;28;20046;-62
2023/03/18 05:07:14;;;;;;;0.55;0.55;;;8.90;99.90;;;;;;5006294;28;20038;-62
2023/03/18 05:09:40;;;;;;;4.50;0.88;;;8.90;99.90;;;;;;5004392;28;20053;-62
2023/03/18 05:12:10;;;;;;;0.30;0.30;;;9.00;99.90;;;;;;4998551;28;20039;-62
2023/03/18 05:14:35;;;;;;;1.27;1.17;;;9.00;99.90;;;;;;4997963;28;20062;-62
2023/03/18 05:17:03;;;;;;;0.80;0.80;;;9.00;99.90;;;;;;4999158;28;20038;-62
2023/03/18 05:19:29;;;;;;;1.50;1.40;;;9.00;99.90;;;;;;5005939;28;20056;-62
2023/03/18 05:21:55;;;;;;;2.72;2.50;;;9.10;99.90;;;;;;5001615;28;20045;-63
2023/03/18 05:24:20;;;;;;;1.02;0.88;;;9.10;99.90;;;;;;5011110;28;20042;-63
2023/03/18 05:26:47;;;;;;;1.58;1.40;;;9.10;99.90;;;;;;5010059;28;20409;-62
2023/03/18 05:29:12;;;;;;;2.45;0.90;;;9.10;99.90;;;;;;5001413;28;20042;-62
2023/03/18 05:31:38;;;;;;;0.55;0.55;;;9.10;99.90;;;;;;5002210;28;20448;-62
2023/03/18 05:34:06;;;;;;;3.22;1.95;;;9.10;99.90;;;;;;5007693;28;20108;-62
2023/03/18 05:36:32;;;;;;;0.52;0.52;;;9.10;99.90;;;;;;5008556;28;20042;-62
2023/03/18 05:38:57;;;;;;;0.43;0.43;;;9.20;99.90;;;;;;4992379;28;20050;-62
2023/03/18 05:41:23;;;;;;;1.80;1.05;;;9.20;99.90;;;;;;5005528;28;20104;-62
2023/03/18 05:43:49;;;;;;;0.10;0.10;;;9.20;99.90;;;;;;5009112;28;20073;-62
2023/03/18 05:46:15;;;;;;;0.52;0.52;;;9.30;99.90;;;;;;5001764;28;20118;-61
2023/03/18 05:48:41;;;;;;;0.68;0.68;;;9.30;99.90;;;;;;4995670;28;20042;-62
2023/03/18 05:51:06;;;;;;;6.35;1.55;;;9.30;99.90;;;;;;5006372;28;20037;-62
2023/03/18 05:53:32;;;;;;;0.45;0.45;;;9.30;99.90;;;;;;5003163;28;20046;-62
2023/03/18 05:55:58;;;;;;;2.47;2.28;;;9.40;99.90;;;;;;4999535;28;20066;-62
2023/03/18 05:58:24;;;;;;;0.90;0.90;;;9.30;99.90;;;;;;5009088;28;20045;-62
2023/03/18 06:00:50;;;;;;;0.60;0.60;;;9.40;99.90;;;;;;5001900;28;20394;-62
2023/03/18 06:03:17;;;;;;;0.52;0.52;;;9.40;99.90;;;;;;5009097;28;20046;-62
2023/03/18 06:05:42;;;;;;;1.60;1.50;;;9.30;99.90;;;;;;5008891;28;20088;-62
2023/03/18 06:08:08;;;;;;;1.10;1.05;;;9.40;99.90;;;;;;5009382;28;20050;-62
2023/03/18 06:10:34;;;;;;;1.48;1.25;;;9.30;99.90;;;;;;4996659;28;20175;-62
2023/03/18 06:12:59;;;;;;;7.50;2.22;;;9.40;99.90;;;;;;5010256;28;20508;-62
2023/03/18 06:15:25;;;;;;;0.40;0.40;;;9.40;99.90;;;;;;5003631;28;20486;-62
2023/03/18 06:17:51;;;;;;;0.73;0.73;;;9.40;99.90;;;;;;4997799;28;20125;-62
2023/03/18 06:20:18;;;;;;;0.10;0.10;;;9.40;99.90;;;;;;5009098;28;20084;-62
2023/03/18 06:22:48;;;;;;;2.13;1.98;;;9.40;99.90;;;;;;5007183;28;20120;-62
2023/03/18 06:25:15;;;;;;;1.30;1.20;;;9.30;99.90;;;;;;4999544;28;20054;-62
2023/03/18 06:27:40;;;;;;;6.50;2.25;;;9.40;99.90;;;;;;5008685;28;20065;-62
2023/03/18 06:30:07;;;;;;;0.10;0.10;;;9.40;99.90;;;;;;5004180;28;20042;-62
2023/03/18 06:32:33;;;;;;;0.30;0.30;;;9.40;99.90;;;;;;5005394;28;20042;-62
2023/03/18 06:34:59;;;;;;;1.25;1.20;;;9.50;99.90;;;;;;5009136;28;20404;-62
2023/03/18 06:37:25;;;;;;;0.57;0.57;;;9.50;99.90;;;;;;5002342;28;20061;-62
2023/03/18 06:39:51;;;;;;;1.25;0.70;;;9.50;99.90;;;;;;4995707;28;20042;-62
2023/03/18 06:42:16;;;;;;;0.98;0.98;;;9.50;99.90;;;;;;5008704;28;20501;-62
2023/03/18 06:44:49;;;;;;;7.45;1.83;;;9.50;99.90;;;;;;4995325;28;20081;-63
2023/03/18 06:47:18;;;;;;;1.05;0.40;;;9.60;99.90;;;;;;4992204;28;20401;-62
2023/03/18 06:49:44;;;;;;;0.57;0.57;;;9.60;99.90;;;;;;5008770;28;20045;-62
2023/03/18 06:52:10;;;;;;;0.77;0.77;;;9.60;99.90;;;;;;4994886;28;20533;-62
2023/03/18 06:54:36;;;;;;;1.02;0.93;;;9.70;99.90;;;;;;5005732;28;20531;-62
2023/03/18 06:57:01;;;;;;;0.93;0.90;;;9.70;99.90;;;;;;5004749;28;20041;-62
2023/03/18 06:59:27;;;;;;;0.82;0.82;;;9.70;99.90;;;;;;4992452;28;20069;-62
2023/03/18 07:01:53;;;;;;;0.57;0.57;;;9.70;99.90;;;;;;5001934;28;20428;-64
2023/03/18 07:04:19;;;;;;;1.67;0.55;;;9.70;99.90;;;;;;5011607;28;20046;-64
2023/03/18 07:06:45;;;;;;;2.28;2.08;;;9.80;99.90;;;;;;5011376;28;20064;-64
2023/03/18 07:09:11;;;;;;;2.75;1.10;;;9.80;99.90;;;;;;5005233;28;20052;-64
2023/03/18 07:11:37;;;;;;;0.10;0.10;;;9.80;99.90;;;;;;5000542;28;20125;-64
2023/03/18 07:14:02;;;;;;;0.32;0.32;;;9.80;99.90;;;;;;4998667;28;20120;-64
2023/03/18 07:16:29;;;;;;;1.00;1.00;;;9.90;99.90;;;;;;5012811;28;20050;-64
2023/03/18 07:18:57;;;;;;;0.85;0.85;;;9.90;99.90;;;;;;5009305;28;20096;-64
2023/03/18 07:21:22;;;;;;;0.30;0.30;;;9.90;99.90;;;;;;5008719;28;20485;-64
2023/03/18 07:23:48;;;;;;;0.73;0.73;;;9.90;99.90;;;;;;5008631;28;20049;-65
2023/03/18 07:26:14;;;;;;;0.75;0.75;;;9.90;99.90;;;;;;5000387;28;20145;-64
2023/03/18 07:28:39;;;;;;;1.85;1.08;;;9.90;99.90;;;;;;5011494;28;20049;-64
2023/03/18 07:31:05;;;;;;;1.25;1.15;;;10.00;99.90;;;;;;5010462;28;20042;-64
2023/03/18 07:33:32;;;;;;;4.45;2.08;;;10.00;99.90;;;;;;5007537;28;20090;-64
2023/03/18 07:35:58;;;;;;;0.80;0.80;;;10.00;99.90;;;;;;5000097;28;20050;-64
2023/03/18 07:38:24;;;;;;;1.38;1.27;;;10.10;99.90;;;;;;5009253;28;20041;-63
2023/03/18 07:40:50;;;;;;;1.25;1.23;;;10.20;99.90;;;;;;5011624;28;20942;-64
2023/03/18 07:43:16;;;;;;;0.15;0.15;;;10.30;99.90;;;;;;5008563;28;20049;-64
2023/03/18 07:45:42;;;;;;;0.22;0.22;;;10.30;99.90;;;;;;5002811;28;20053;-63
2023/03/18 07:48:07;;;;;;;1.83;1.73;;;10.40;99.90;;;;;;4997309;28;20042;-64
2023/03/18 07:50:33;;;;;;;0.90;0.90;;;10.50;99.90;;;;;;5003939;28;20040;-64
2023/03/18 07:52:59;;;;;;;0.47;0.47;;;10.50;99.90;;;;;;5009588;28;20132;-64
2023/03/18 07:55:24;;;;;;;0.82;0.82;;;10.60;99.90;;;;;;4993842;28;20082;-64
2023/03/18 07:57:50;;;;;;;0.57;0.57;;;10.70;99.90;;;;;;5011272;28;20077;-64
2023/03/18 08:00:17;;;;;;;1.02;0.98;;;10.80;99.90;;;;;;5000017;28;20046;-64
2023/03/18 08:02:42;;;;;;;0.63;0.63;;;10.80;99.90;;;;;;4995338;28;20048;-64
2023/03/18 08:05:09;;;;;;;0.50;0.50;;;10.90;99.90;;;;;;4993253;28;20038;-64
2023/03/18 08:07:35;;;;;;;3.78;1.58;;;11.00;99.90;;;;;;4996553;28;20396;-64
2023/03/18 08:10:01;;;;;;;0.63;0.63;;;11.00;99.90;;;;;;5012501;28;20050;-64
2023/03/18 08:12:27;;;;;;;0.43;0.43;;;11.00;99.90;;;;;;5010420;28;20057;-64
2023/03/18 08:14:53;;;;;;;1.27;1.27;;;11.00;99.90;;;;;;5010254;28;20049;-65
2023/03/18 08:17:18;;;;;;;1.63;1.52;;;11.00;99.90;;;;;;4999960;28;20046;-64
2023/03/18 08:19:44;;;;;;;0.47;0.47;;;11.00;99.90;;;;;;5004677;28;20042;-64
2023/03/18 08:22:10;;;;;;;0.63;0.63;;;11.00;99.90;;;;;;4991839;28;20065;-64
2023/03/18 08:24:37;;;;;;;1.50;1.40;;;11.00;99.90;;;;;;5007704;28;20137;-64
2023/03/18 08:27:03;;;;;;;0.43;0.43;;;11.10;99.90;;;;;;5001285;28;20042;-64
2023/03/18 08:29:29;;;;;;;0.80;0.80;;;11.10;99.90;;;;;;4996821;28;20077;-64
2023/03/18 08:31:56;;;;;;;0.70;0.70;;;11.10;99.90;;;;;;5007144;28;20473;-64
2023/03/18 08:34:22;;;;;;;0.20;0.20;;;11.10;99.90;;;;;;5002834;28;20441;-64
2023/03/18 08:36:47;;;;;;;0.82;0.60;;;11.10;99.90;;;;;;4992506;28;20046;-64
2023/03/18 08:39:13;;;;;;;3.97;1.98;;;11.20;99.90;;;;;;5004554;28;20631;-64
2023/03/18 08:41:39;;;;;;;0.82;0.82;;;11.20;99.90;;;;;;4999915;28;20042;-64
2023/03/18 08:44:07;;;;;;;0.40;0.40;;;11.20;99.90;;;;;;4991381;28;20520;-64
2023/03/18 08:46:33;;;;;;;1.40;1.00;;;11.20;99.90;;;;;;5003853;28;20042;-64
2023/03/18 08:48:58;;;;;;;0.70;0.70;;;11.20;99.90;;;;;;4992096;28;20093;-64
2023/03/18 08:51:24;;;;;;;0.20;0.20;;;11.20;99.90;;;;;;5001460;28;20056;-64
2023/03/18 08:53:50;;;;;;;0.43;0.43;;;11.30;99.90;;;;;;5006089;28;20052;-64
2023/03/18 08:56:15;;;;;;;0.20;0.20;;;11.30;99.90;;;;;;5011419;28;20173;-64
2023/03/18 08:58:43;;;;;;;0.80;0.55;;;11.40;99.90;;;;;;5011161;28;20104;-64
2023/03/18 09:01:09;;;;;;;0.75;0.75;;;11.40;99.90;;;;;;5007513;28;20626;-64
2023/03/18 09:03:35;;;;;;;0.40;0.40;;;11.40;99.90;;;;;;4999126;28;20147;-64
2023/03/18 09:06:00;;;;;;;0.63;0.63;;;11.50;99.90;;;;;;5011354;28;20046;-64
2023/03/18 09:08:29;;;;;;;0.65;0.65;;;11.60;99.90;;;;;;4999717;28;20046;-63
2023/03/18 09:10:55;;;;;;;0.20;0.20;;;11.60;99.90;;;;;;4995636;28;20397;-64
2023/03/18 09:13:22;;;;;;;0.30;0.30;;;11.70;99.90;;;;;;4994117;28;20049;-64
2023/03/18 09:15:48;;;;;;;2.42;1.58;;;11.80;99.90;;;;;;5008676;28;20044;-64
2023/03/18 09:18:15;;;;;;;3.65;1.73;;;11.90;99.90;;;;;;5010360;28;20060;-64
2023/03/18 09:20:42;;;;;;;1.55;1.48;;;12.00;99.90;;;;;;5000218;28;20660;-64
2023/03/18 09:23:08;;;;;;;0.55;0.55;;;12.00;99.90;;;;;;4998476;28;20060;-64
2023/03/18 09:25:34;;;;;;;1.20;1.13;;;12.00;99.90;;;;;;5006478;28;20127;-64
2023/03/18 09:28:00;;;;;;;0.55;0.55;;;11.90;99.90;;;;;;5008618;28;20100;-64
2023/03/18 09:30:26;;;;;;;0.52;0.52;;;11.90;99.90;;;;;;4997898;28;20105;-64
2023/03/18 09:32:53;;;;;;;1.75;1.58;;;11.90;99.90;;;;;;4992795;28;20046;-64
2023/03/18 09:35:19;;;;;;;3.25;2.53;;;11.90;99.90;;;;;;4991216;28;20042;-64
2023/03/18 09:37:45;;;;;;;0.63;0.63;;;11.90;99.90;;;;;;4992395;28;20057;-64
2023/03/18 09:40:23;;;;;;;0.38;0.38;;;11.90;99.90;;;;;;4994704;28;20042;-64
2023/03/18 09:43:04;;;;;;;0.50;0.50;;;12.00;99.90;;;;;;4992319;28;20065;-64
2023/03/18 09:45:37;;;;;;;0.68;0.68;;;12.10;99.90;;;;;;4988274;28;20054;-64
2023/03/18 09:48:18;;;;;;;13.55;2.88;;;12.20;99.90;;;;;;4997586;28;20057;-64
2023/03/18 09:50:56;;;;;;;0.82;0.82;;;12.30;99.90;;;;;;5009665;28;20433;-64
2023/03/18 09:53:44;;;;;;;0.93;0.88;;;12.60;99.90;;;;;;5001856;28;20043;-64
2023/03/18 09:56:16;;;;;;;1.52;0.93;;;12.60;99.90;;;;;;4989693;28;20133;-64
2023/03/18 09:58:54;;;;;;;0.68;0.68;;;12.60;99.90;;;;;;5009474;28;20056;-63
2023/03/18 10:01:22;;;;;;;0.85;0.85;;;13.10;99.90;;;;;;5004696;28;20042;-64
2023/03/18 10:03:52;;;;;;;3.72;1.65;;;13.70;99.90;;;;;;5007135;28;20038;-64
2023/03/18 10:06:17;;;;;;;0.90;0.90;;;13.60;99.90;;;;;;5009891;28;20568;-63
2023/03/18 10:09:03;;;;;;;1.00;0.63;;;14.00;99.90;;;;;;5009164;28;20129;-64
2023/03/18 10:11:32;;;;;;;1.08;1.08;;;14.30;99.90;;;;;;5009069;28;20481;-64
2023/03/18 10:14:25;;;;;;;0.30;0.30;;;14.80;99.90;;;;;;5007079;28;20057;-64
2023/03/18 10:17:09;;;;;;;0.30;0.30;;;14.80;99.90;;;;;;4992919;28;20042;-64
2023/03/18 10:19:36;;;;;;;0.55;0.55;;;14.90;99.90;;;;;;5006720;28;20460;-64
2023/03/18 10:22:29;;;;;;;3.42;0.70;;;15.10;99.90;;;;;;5008339;28;20069;-64
2023/03/18 10:25:05;;;;;;;0.75;0.75;;;15.40;99.90;;;;;;4996056;28;20486;-64
2023/03/18 10:27:34;;;;;;;0.75;0.40;;;15.70;99.90;;;;;;5007008;28;20108;-64
2023/03/18 10:30:16;;;;;;;1.02;1.00;;;15.90;99.90;;;;;;5006085;28;20052;-65
2023/03/18 10:33:05;;;;;;;0.30;0.30;;;15.90;99.90;;;;;;4994180;28;20050;-64
2023/03/18 10:35:55;;;;;;;3.38;0.52;;;15.70;99.90;;;;;;5003112;28;20042;-64
2023/03/18 10:38:25;;;;;;;0.75;0.75;;;15.90;99.90;;;;;;4992910;28;20058;-64
2023/03/18 10:40:52;;;;;;;1.13;0.70;;;15.80;99.90;;;;;;4994409;28;20370;-64
2023/03/18 10:43:22;;;;;;;0.30;0.30;;;16.00;99.90;;;;;;4994198;28;20419;-64
2023/03/18 10:45:56;;;;;;;0.52;0.52;;;16.00;99.90;;;;;;4993848;28;20057;-64
2023/03/18 10:48:48;;;;;;;0.73;0.68;;;16.20;99.90;;;;;;4993670;28;20046;-64
2023/03/18 10:51:36;;;;;;;5.30;0.63;;;16.20;99.90;;;;;;5001819;28;20053;-64
2023/03/18 10:54:31;;;;;;;0.10;0.10;;;16.30;99.90;;;;;;4993746;28;20081;-64
2023/03/18 10:56:57;;;;;;;0.10;0.10;;;16.40;99.90;;;;;;4997667;28;20370;-64
2023/03/18 10:59:25;;;;;;;0.38;0.15;;;16.40;99.90;;;;;;5004661;28;20054;-64
2023/03/18 11:01:57;;;;;;;0.10;0.10;;;16.60;99.90;;;;;;4997410;28;20134;-64
2023/03/18 11:04:23;;;;;;;0.45;0.45;;;16.70;99.90;;;;;;5006144;28;20516;-65
2023/03/18 11:06:57;;;;;;;0.28;0.28;;;16.70;99.90;;;;;;5012969;28;20133;-65
2023/03/18 11:09:35;;;;;;;0.63;0.63;;;16.80;99.90;;;;;;5012839;28;20497;-65
2023/03/18 11:12:05;;;;;;;1.05;0.17;;;16.90;99.90;;;;;;4993778;28;20050;-64
2023/03/18 11:14:32;;;;;;;0.05;0.05;;;16.90;99.90;;;;;;4995272;28;20046;-64
2023/03/18 11:17:16;;;;;;;5.18;0.55;;;17.00;99.90;;;;;;4994647;28;20125;-64
2023/03/18 11:19:47;;;;;;;0.30;0.30;;;17.20;99.90;;;;;;4994006;28;20061;-65
2023/03/18 11:22:24;;;;;;;0.43;0.43;;;17.00;99.90;;;;;;5011093;28;20049;-64
2023/03/18 11:25:00;;;;;;;0.00;0.00;;;17.30;99.90;;;;;;4993239;28;20061;-64
2023/03/18 11:27:34;;;;;;;0.10;0.10;;;17.40;99.90;;;;;;5007632;28;20050;-65
2023/03/18 11:30:04;;;;;;;;;;;17.70;99.90;;;;;;4993422;28;20089;-65
2023/03/18 11:32:32;;;;;;;0.20;0.20;;;17.70;99.90;;;;;;4994072;28;19925;-64
2023/03/18 11:35:06;;;;;;;0.30;0.30;;;17.90;99.90;;;;;;4996210;28;20093;-64
2023/03/18 11:37:38;;;;;;;0.20;0.20;;;17.90;99.90;;;;;;4993841;28;20153;-64
2023/03/18 11:40:12;;;;;;;0.80;0.52;;;18.00;99.90;;;;;;4993514;28;20042;-64
2023/03/18 11:42:39;;;;;;;0.00;0.00;;;18.40;99.90;;;;;;4993800;28;20074;-64
2023/03/18 11:45:25;;;;;;;0.25;0.25;;;18.70;99.90;;;;;;5011079;28;20096;-64
2023/03/18 11:47:52;;;;;;;0.20;0.20;;;18.80;99.90;;;;;;5003545;28;20069;-65
2023/03/18 11:50:22;;;;;;;0.05;0.05;;;19.10;99.90;;;;;;4996568;28;20048;-65
2023/03/18 11:53:03;;;;;;;2.17;0.75;;;19.00;99.90;;;;;;5012163;28;20038;-64
2023/03/18 11:55:51;;;;;;;0.80;0.50;;;19.00;99.90;;;;;;5012606;28;20400;-64
2023/03/18 11:58:32;;;;;;;0.32;0.32;;;18.30;99.90;;;;;;5000402;28;20047;-64
2023/03/18 12:01:33;;;;;;;0.10;0.10;;;17.60;99.90;;;;;;4992556;28;20382;-65
2023/03/18 12:04:20;;;;;;;0.45;0.45;;;17.50;99.90;;;;;;5003797;28;20065;-64
2023/03/18 12:07:10;;;;;;;0.38;0.38;;;18.10;99.90;;;;;;5001891;28;20065;-65
2023/03/18 12:09:49;;;;;;;0.43;0.43;;;18.20;99.90;;;;;;4992846;28;20058;-64
2023/03/18 12:12:29;;;;;;;0.10;0.10;;;18.50;99.90;;;;;;5005598;28;20049;-65
2023/03/18 12:15:20;;;;;;;0.10;0.10;;;18.50;99.90;;;;;;5011856;28;20078;-65
2023/03/18 12:18:24;;;;;;;0.10;0.10;;;17.90;99.90;;;;;;4991019;28;20497;-64
2023/03/18 12:20:52;;;;;;;0.13;0.13;;;18.20;99.90;;;;;;4950375;28;20797;-65
2023/03/18 12:23:36;;;;;;;19.70;1.45;;;18.10;99.90;;;;;;4952214;28;20051;-65
2023/03/18 12:26:16;;;;;;;0.35;0.35;;;18.00;99.90;;;;;;4986197;28;20393;-65
2023/03/18 12:29:01;;;;;;;0.08;0.08;;;18.10;99.90;;;;;;4997191;28;20078;-64
2023/03/18 12:31:34;;;;;;;0.20;0.20;;;18.20;99.90;;;;;;4992406;28;20082;-65
2023/03/18 12:34:02;;;;;;;0.20;0.20;;;18.40;99.90;;;;;;4997050;28;20660;-65
2023/03/18 12:36:36;;;;;;;0.00;0.00;;;18.70;99.90;;;;;;4991776;28;20054;-65
2023/03/18 12:39:40;;;;;;;0.15;0.15;;;18.70;99.90;;;;;;4994244;28;20046;-65
2023/03/18 12:42:19;;;;;;;0.00;0.00;;;18.30;99.90;;;;;;4999667;28;20062;-65
2023/03/18 12:45:11;;;;;;;0.03;0.03;;;18.60;99.90;;;;;;5004927;28;20129;-65
2023/03/18 12:48:10;;;;;;;0.20;0.20;;;19.20;99.90;;;;;;5010184;28;20070;-65
2023/03/18 12:50:42;;;;;;;0.52;0.47;;;19.60;99.90;;;;;;5003113;28;20062;-65
2023/03/18 12:53:19;;;;;;;3.42;0.35;;;19.70;99.90;;;;;;4999830;28;20069;-65
2023/03/18 12:55:55;;;;;;;0.00;0.00;;;20.20;99.90;;;;;;4997938;28;20504;-65
2023/03/18 12:58:25;;;;;;;0.00;0.00;;;20.30;99.90;;;;;;5011334;28;20106;-65
2023/03/18 13:01:18;;;;;;;0.10;0.10;;;20.50;99.90;;;;;;5005650;28;20248;-65
2023/03/18 13:03:52;;;;;;;0.10;0.10;;;20.70;99.90;;;;;;5011214;28;20095;-65